Time;durP1;ratioP1;P1;durP2;ratioP2;P2;SDS_P1;SDS_P2;PMS_P1;PMS_P2;Temp;Humidity;BMP_temperature;BMP_pressure;BME280_temperature;BME280_humidity;BME280_pressure;Samples;Min_cycle;Max_cycle;Signal;HPM_P1;HPM_P2
2022/04/16 00:02:03;;;;;;;7.47;4.45;;;9.00;99.90;;;;;;4923353;29;20505;-59
2022/04/16 00:04:30;;;;;;;10.82;6.60;;;9.00;99.90;;;;;;4929129;29;20032;-56
2022/04/16 00:06:56;;;;;;;8.35;6.32;;;8.90;99.90;;;;;;4926274;29;20394;-57
2022/04/16 00:09:22;;;;;;;7.47;4.75;;;8.80;99.90;;;;;;4924622;29;20051;-57
2022/04/16 00:11:48;;;;;;;9.50;6.43;;;8.70;99.90;;;;;;4925667;29;20141;-54
2022/04/16 00:14:19;;;;;;;10.80;6.03;;;8.60;99.90;;;;;;4922277;29;20139;-54
2022/04/16 00:16:45;;;;;;;8.70;5.35;;;8.50;99.90;;;;;;4923916;29;20370;-55
2022/04/16 00:19:11;;;;;;;8.95;5.10;;;8.50;99.90;;;;;;4925186;29;20443;-58
2022/04/16 00:21:38;;;;;;;8.32;5.10;;;8.40;99.90;;;;;;4931620;29;20174;-57
2022/04/16 00:24:04;;;;;;;10.07;5.65;;;8.30;99.90;;;;;;4929921;29;20529;-57
2022/04/16 00:26:30;;;;;;;10.27;6.72;;;8.30;99.90;;;;;;4923186;29;20626;-57
2022/04/16 00:28:58;;;;;;;8.40;5.15;;;8.20;99.90;;;;;;4928656;29;20122;-57
2022/04/16 00:31:25;;;;;;;13.05;6.60;;;8.10;99.90;;;;;;4926904;29;20622;-57
2022/04/16 00:33:52;;;;;;;8.25;5.68;;;8.10;99.90;;;;;;4928352;29;20090;-58
2022/04/16 00:36:18;;;;;;;11.27;6.32;;;8.10;99.90;;;;;;4928309;29;20048;-48
2022/04/16 00:38:43;;;;;;;8.95;5.53;;;8.00;99.90;;;;;;4931426;29;20058;-55
2022/04/16 00:41:11;;;;;;;9.35;6.07;;;8.00;99.90;;;;;;4928662;29;20519;-57
2022/04/16 00:43:37;;;;;;;9.07;5.53;;;7.90;99.90;;;;;;4929754;29;20047;-58
2022/04/16 00:46:03;;;;;;;7.60;4.57;;;7.80;99.90;;;;;;4928405;29;20122;-57
2022/04/16 00:48:29;;;;;;;11.02;7.30;;;7.80;99.90;;;;;;4927761;29;20131;-58
2022/04/16 00:50:56;;;;;;;8.98;5.95;;;7.80;99.90;;;;;;4931758;29;20045;-50
2022/04/16 00:53:25;;;;;;;10.15;6.68;;;7.70;99.90;;;;;;4927804;29;20074;-57
2022/04/16 00:55:51;;;;;;;8.82;5.53;;;7.70;99.90;;;;;;4924509;29;20532;-57
2022/04/16 00:58:17;;;;;;;9.10;5.88;;;7.60;99.90;;;;;;4929586;29;20185;-57
2022/04/16 01:00:42;;;;;;;9.57;5.88;;;7.60;99.90;;;;;;4928905;29;20504;-58
2022/04/16 01:03:08;;;;;;;9.68;6.10;;;7.60;99.90;;;;;;4907821;29;20469;-52
2022/04/16 01:05:35;;;;;;;9.63;4.93;;;7.50;99.90;;;;;;4928880;29;20146;-58
2022/04/16 01:08:04;;;;;;;9.48;5.93;;;7.50;99.90;;;;;;4929532;29;20473;-57
2022/04/16 01:10:31;;;;;;;9.60;6.10;;;7.50;99.90;;;;;;4931479;29;20061;-47
2022/04/16 01:12:59;;;;;;;13.32;6.00;;;7.50;99.90;;;;;;4926246;29;20098;-54
2022/04/16 01:15:25;;;;;;;10.57;6.88;;;7.40;99.90;;;;;;4926163;29;20047;-56
2022/04/16 01:17:52;;;;;;;8.35;5.28;;;7.40;99.90;;;;;;4924340;29;20210;-57
2022/04/16 01:20:18;;;;;;;11.05;7.15;;;7.40;99.90;;;;;;4929003;29;20046;-55
2022/04/16 01:22:45;;;;;;;10.48;5.90;;;7.40;99.90;;;;;;4928230;29;20512;-58
2022/04/16 01:25:11;;;;;;;9.07;5.93;;;7.30;99.90;;;;;;4921775;29;20534;-49
2022/04/16 01:27:43;;;;;;;9.95;6.53;;;7.30;99.90;;;;;;4929392;29;20044;-57
2022/04/16 01:30:11;;;;;;;11.60;6.37;;;7.30;99.90;;;;;;4926003;29;20452;-57
2022/04/16 01:32:37;;;;;;;11.18;6.28;;;7.20;99.90;;;;;;4905548;29;20074;-57
2022/04/16 01:35:05;;;;;;;11.15;6.20;;;7.20;99.90;;;;;;4927202;29;20492;-56
2022/04/16 01:37:34;;;;;;;9.82;6.30;;;7.20;99.90;;;;;;4930118;29;20054;-55
2022/04/16 01:40:05;;;;;;;10.55;5.78;;;7.20;99.90;;;;;;4925287;29;20043;-58
2022/04/16 01:42:32;;;;;;;12.00;7.07;;;7.20;99.90;;;;;;4921720;29;20084;-57
2022/04/16 01:45:05;;;;;;;14.20;7.82;;;7.20;99.90;;;;;;4927141;29;20036;-58
2022/04/16 01:47:36;;;;;;;12.98;7.53;;;7.10;99.90;;;;;;4926342;29;20350;-50
2022/04/16 01:50:03;;;;;;;14.00;8.13;;;7.10;99.90;;;;;;4927469;29;20346;-56
2022/04/16 01:52:29;;;;;;;11.80;6.90;;;7.00;99.90;;;;;;4923744;29;20539;-56
2022/04/16 01:54:54;;;;;;;9.23;6.90;;;7.00;99.90;;;;;;4930283;29;20055;-58
2022/04/16 01:57:20;;;;;;;11.00;6.25;;;7.00;99.90;;;;;;4924014;29;20039;-50
2022/04/16 01:59:47;;;;;;;10.23;6.78;;;7.00;99.90;;;;;;4929618;29;20053;-57
2022/04/16 02:02:14;;;;;;;9.43;6.05;;;6.90;99.90;;;;;;4925588;29;20273;-57
2022/04/16 02:04:39;;;;;;;10.70;6.43;;;6.90;99.90;;;;;;4927496;29;20051;-56
2022/04/16 02:07:05;;;;;;;9.60;6.40;;;6.90;99.90;;;;;;4922992;29;20039;-53
2022/04/16 02:09:31;;;;;;;13.82;7.13;;;6.90;99.90;;;;;;4922155;29;20051;-56
2022/04/16 02:11:57;;;;;;;10.50;7.20;;;6.90;99.90;;;;;;4921405;29;20039;-57
2022/04/16 02:14:23;;;;;;;10.82;7.07;;;6.90;99.90;;;;;;4912235;29;20040;-56
2022/04/16 02:16:49;;;;;;;11.68;7.10;;;7.00;99.90;;;;;;4926483;29;20473;-57
2022/04/16 02:19:17;;;;;;;14.10;8.18;;;7.10;99.90;;;;;;4926992;29;20071;-58
2022/04/16 02:21:44;;;;;;;13.88;9.20;;;7.10;99.90;;;;;;4925443;29;20119;-55
2022/04/16 02:24:13;;;;;;;11.90;7.28;;;7.20;99.90;;;;;;4920081;29;20063;-58
2022/04/16 02:26:40;;;;;;;14.23;8.98;;;7.30;99.90;;;;;;4926813;29;20047;-58
2022/04/16 02:29:08;;;;;;;14.18;7.68;;;7.30;99.90;;;;;;4929280;29;20042;-53
2022/04/16 02:31:34;;;;;;;14.82;8.88;;;7.30;99.90;;;;;;4911021;29;20044;-57
2022/04/16 02:34:00;;;;;;;13.50;8.13;;;7.30;99.90;;;;;;4929893;29;20032;-58
2022/04/16 02:36:25;;;;;;;11.35;7.57;;;7.20;99.90;;;;;;4911258;29;20560;-54
2022/04/16 02:38:56;;;;;;;14.77;8.23;;;7.20;99.90;;;;;;4928808;29;20066;-56
2022/04/16 02:41:22;;;;;;;15.10;8.27;;;7.10;99.90;;;;;;4924303;29;20106;-58
2022/04/16 02:43:47;;;;;;;15.30;10.35;;;7.10;99.90;;;;;;4926129;29;20102;-57
2022/04/16 02:48:57;;;;;;;14.27;8.68;;;7.00;99.90;;;;;;4929124;29;20051;-58
2022/04/16 02:51:24;;;;;;;17.05;8.93;;;6.90;99.90;;;;;;4926568;29;20115;-58
2022/04/16 02:53:50;;;;;;;14.85;8.43;;;6.90;99.90;;;;;;4922298;29;20048;-57
2022/04/16 02:56:16;;;;;;;15.00;8.82;;;6.80;99.90;;;;;;4925320;29;20058;-46
2022/04/16 02:58:41;;;;;;;16.17;8.73;;;6.80;99.90;;;;;;4921015;29;20057;-57
2022/04/16 03:01:07;;;;;;;18.88;10.45;;;6.80;99.90;;;;;;4909111;29;20043;-56
2022/04/16 03:03:33;;;;;;;14.55;9.13;;;6.80;99.90;;;;;;4923148;29;20079;-51
2022/04/16 03:05:59;;;;;;;14.15;8.70;;;6.80;99.90;;;;;;4919969;29;20042;-51
2022/04/16 03:08:25;;;;;;;18.30;10.18;;;6.90;99.90;;;;;;4905755;29;20079;-54
2022/04/16 03:10:51;;;;;;;14.60;9.07;;;6.90;99.90;;;;;;4926205;29;20051;-56
2022/04/16 03:13:18;;;;;;;17.20;9.35;;;6.90;99.90;;;;;;4926636;29;20052;-57
2022/04/16 03:18:28;;;;;;;17.02;9.63;;;6.90;99.90;;;;;;4927447;29;20052;-58
2022/04/16 03:20:54;;;;;;;14.48;8.20;;;6.90;99.90;;;;;;4925982;29;20121;-57
2022/04/16 03:23:20;;;;;;;15.05;9.10;;;6.90;99.90;;;;;;4923008;29;20055;-57
2022/04/16 03:25:48;;;;;;;14.77;9.18;;;6.90;99.90;;;;;;4928374;29;20056;-57
2022/04/16 03:28:15;;;;;;;14.52;8.93;;;6.90;99.90;;;;;;4922966;29;20086;-57
2022/04/16 03:30:41;;;;;;;14.30;8.70;;;6.90;99.90;;;;;;4921663;29;20048;-58
2022/04/16 03:33:08;;;;;;;15.80;9.70;;;6.90;99.90;;;;;;4923778;29;20058;-57
2022/04/16 03:35:34;;;;;;;19.08;9.23;;;6.90;99.90;;;;;;4926789;29;20047;-54
2022/04/16 03:38:00;;;;;;;15.60;10.18;;;6.90;99.90;;;;;;4926179;29;20040;-53
2022/04/16 03:40:26;;;;;;;18.33;10.82;;;6.90;99.90;;;;;;4910684;29;20066;-57
2022/04/16 03:42:53;;;;;;;16.00;9.38;;;7.00;99.90;;;;;;4925073;29;20046;-57
2022/04/16 03:45:21;;;;;;;16.55;9.93;;;7.00;99.90;;;;;;4922787;29;20134;-57
2022/04/16 03:47:48;;;;;;;15.10;8.57;;;7.00;99.90;;;;;;4925435;29;20047;-57
2022/04/16 03:50:14;;;;;;;16.90;10.55;;;7.00;99.90;;;;;;4923786;29;20056;-57
2022/04/16 03:52:41;;;;;;;16.50;9.88;;;7.00;99.90;;;;;;4924908;29;20074;-57
2022/04/16 04:00:42;;;;;;;17.67;10.43;;;7.00;99.90;;;;;;4926991;29;20178;-47
2022/04/16 04:03:07;;;;;;;17.63;9.88;;;7.00;99.90;;;;;;4913973;29;20063;-57
2022/04/16 04:05:33;;;;;;;18.02;10.82;;;7.00;99.90;;;;;;4924742;29;20051;-56
2022/04/16 04:07:59;;;;;;;20.42;11.32;;;7.00;99.90;;;;;;4930490;29;20047;-57
2022/04/16 04:10:24;;;;;;;18.85;11.20;;;7.00;99.90;;;;;;4929644;29;20071;-57
2022/04/16 04:12:50;;;;;;;18.45;11.55;;;7.00;99.90;;;;;;4930385;29;20043;-57
2022/04/16 04:15:16;;;;;;;19.30;11.70;;;7.00;99.90;;;;;;4928610;29;20039;-57
2022/04/16 04:17:41;;;;;;;22.25;12.88;;;7.00;99.90;;;;;;4931090;29;20079;-57
2022/04/16 04:20:07;;;;;;;21.95;12.35;;;7.10;99.90;;;;;;4930427;29;20056;-57
2022/04/16 04:22:33;;;;;;;18.05;11.65;;;7.10;99.90;;;;;;4929604;29;20523;-57
2022/04/16 04:24:59;;;;;;;22.48;12.85;;;7.10;99.90;;;;;;4914263;29;20055;-57
2022/04/16 04:27:24;;;;;;;21.85;12.65;;;7.20;99.90;;;;;;4927332;29;20107;-57
2022/04/16 04:29:50;;;;;;;21.20;12.20;;;7.20;99.90;;;;;;4929365;29;20489;-57
2022/04/16 04:32:15;;;;;;;21.38;13.75;;;7.20;99.90;;;;;;4928761;29;20039;-57
2022/04/16 04:34:41;;;;;;;16.75;10.75;;;7.20;99.90;;;;;;4932590;29;20405;-52
2022/04/16 04:37:07;;;;;;;21.38;13.00;;;7.20;99.90;;;;;;4930127;29;20044;-57
2022/04/16 04:39:33;;;;;;;21.05;12.93;;;7.20;99.90;;;;;;4930056;29;20449;-57
2022/04/16 04:41:58;;;;;;;18.90;11.60;;;7.20;99.90;;;;;;4912362;29;20051;-57
2022/04/16 04:44:24;;;;;;;20.60;13.02;;;7.30;99.90;;;;;;4916265;29;20350;-57
2022/04/16 04:46:50;;;;;;;19.38;12.40;;;7.30;99.90;;;;;;4927878;29;20416;-57
2022/04/16 04:49:15;;;;;;;19.85;11.80;;;7.30;99.90;;;;;;4929496;29;20035;-57
2022/04/16 04:51:41;;;;;;;19.15;11.65;;;7.30;99.90;;;;;;4926044;29;20067;-57
2022/04/16 04:54:08;;;;;;;20.92;13.63;;;7.30;99.90;;;;;;4930215;29;20050;-57
2022/04/16 04:56:34;;;;;;;20.42;12.82;;;7.40;99.90;;;;;;4929495;29;20040;-57
2022/04/16 04:59:00;;;;;;;21.67;12.30;;;7.40;99.90;;;;;;4928794;29;20513;-57
2022/04/16 05:01:26;;;;;;;21.17;12.40;;;7.40;99.90;;;;;;4928302;29;20059;-57
2022/04/16 05:03:52;;;;;;;18.92;11.30;;;7.40;99.90;;;;;;4930392;29;20051;-53
2022/04/16 05:06:18;;;;;;;20.15;12.57;;;7.40;99.90;;;;;;4928509;29;20464;-55
2022/04/16 05:08:43;;;;;;;19.83;12.38;;;7.50;99.90;;;;;;4926400;29;20032;-54
2022/04/16 05:11:10;;;;;;;20.13;12.73;;;7.50;99.90;;;;;;4930181;29;20040;-57
2022/04/16 05:13:35;;;;;;;19.65;12.02;;;7.50;99.90;;;;;;4931068;29;20103;-57
2022/04/16 05:16:01;;;;;;;19.48;12.43;;;7.60;99.90;;;;;;4929080;29;20071;-55
2022/04/16 05:18:27;;;;;;;22.63;12.55;;;7.60;99.90;;;;;;4908593;29;20416;-55
2022/04/16 05:20:52;;;;;;;18.63;11.85;;;7.60;99.90;;;;;;4931995;29;20102;-57
2022/04/16 05:23:18;;;;;;;21.95;13.13;;;7.70;99.90;;;;;;4925479;29;20095;-49
2022/04/16 05:25:43;;;;;;;21.33;13.38;;;7.70;99.90;;;;;;4922792;29;20054;-57
2022/04/16 05:28:09;;;;;;;22.40;14.15;;;7.80;99.90;;;;;;4929955;29;20046;-57
2022/04/16 05:30:44;;;;;;;16.38;11.05;;;7.80;99.90;;;;;;4931816;29;20119;-57
2022/04/16 05:34:18;;;;;;;22.10;13.00;;;7.90;99.90;;;;;;4927482;29;20048;-57
2022/04/16 05:36:06;;;;;;;20.83;12.85;;;7.90;99.90;;;;;;4926512;29;20052;-55
2022/04/16 05:38:32;;;;;;;19.08;11.52;;;8.00;99.90;;;;;;4927106;29;20947;-57
2022/04/16 05:40:58;;;;;;;18.52;11.88;;;8.00;99.90;;;;;;4928416;29;20058;-57
2022/04/16 05:43:24;;;;;;;19.15;12.18;;;8.10;99.90;;;;;;4909785;29;20127;-57
2022/04/16 05:45:49;;;;;;;20.23;12.90;;;8.10;99.90;;;;;;4928632;29;20092;-56
2022/04/16 05:48:15;;;;;;;17.13;11.82;;;8.20;99.90;;;;;;4924809;29;20055;-57
2022/04/16 05:50:41;;;;;;;17.25;11.65;;;8.20;99.90;;;;;;4924296;29;20126;-55
2022/04/16 05:53:09;;;;;;;19.17;13.02;;;8.30;99.90;;;;;;4921014;29;20047;-52
2022/04/16 05:55:35;;;;;;;17.23;10.95;;;8.30;99.90;;;;;;4930557;29;20044;-56
2022/04/16 05:58:01;;;;;;;20.17;11.45;;;8.40;99.90;;;;;;4925024;29;20126;-54
2022/04/16 06:00:28;;;;;;;15.63;10.63;;;8.40;99.90;;;;;;4928217;29;20480;-55
2022/04/16 06:02:55;;;;;;;17.80;11.63;;;8.40;99.90;;;;;;4923718;29;20083;-57
2022/04/16 06:05:22;;;;;;;18.20;11.32;;;8.40;99.90;;;;;;4926810;29;20576;-53
2022/04/16 06:07:48;;;;;;;18.48;11.57;;;8.50;99.90;;;;;;4923606;29;20043;-56
2022/04/16 06:10:14;;;;;;;17.45;11.65;;;8.40;99.90;;;;;;4927433;29;20570;-56
2022/04/16 06:12:41;;;;;;;16.27;11.15;;;8.40;99.90;;;;;;4927359;29;21379;-57
2022/04/16 06:15:07;;;;;;;16.65;11.00;;;8.50;99.90;;;;;;4926202;29;20052;-57
2022/04/16 06:17:34;;;;;;;17.27;10.07;;;8.50;99.90;;;;;;4909059;29;20048;-56
2022/04/16 06:19:59;;;;;;;16.00;10.80;;;8.50;99.90;;;;;;4906116;29;21061;-53
2022/04/16 06:22:25;;;;;;;13.82;8.85;;;8.50;99.90;;;;;;4891599;29;20040;-57
2022/04/16 06:24:51;;;;;;;14.02;9.48;;;8.60;99.90;;;;;;4909628;29;20511;-56
2022/04/16 06:27:16;;;;;;;15.23;10.15;;;8.60;99.90;;;;;;4909934;29;20044;-56
2022/04/16 06:29:42;;;;;;;15.65;9.80;;;8.60;99.90;;;;;;4909900;29;20052;-54
2022/04/16 06:32:08;;;;;;;13.48;8.95;;;8.70;99.90;;;;;;4904388;29;20486;-55
2022/04/16 06:34:34;;;;;;;14.05;9.55;;;8.70;99.90;;;;;;4910976;29;20036;-58
2022/04/16 06:36:59;;;;;;;16.05;9.93;;;8.70;99.90;;;;;;4911599;29;20458;-53
2022/04/16 06:39:26;;;;;;;14.43;8.82;;;8.60;99.90;;;;;;4907484;29;20402;-58
2022/04/16 06:41:51;;;;;;;16.05;10.25;;;8.60;99.90;;;;;;4906846;29;20048;-53
2022/04/16 06:44:17;;;;;;;12.38;7.95;;;8.60;99.90;;;;;;4907174;29;20040;-58
2022/04/16 06:46:43;;;;;;;13.27;8.95;;;8.50;99.90;;;;;;4910090;29;20099;-55
2022/04/16 06:49:08;;;;;;;11.90;8.30;;;8.50;99.90;;;;;;4905769;29;20039;-58
2022/04/16 06:51:34;;;;;;;14.20;8.10;;;8.50;99.90;;;;;;4910715;29;20032;-58
2022/04/16 06:54:00;;;;;;;12.57;7.88;;;8.60;99.90;;;;;;4907263;29;20095;-61
2022/04/16 06:56:25;;;;;;;12.95;8.93;;;8.60;99.90;;;;;;4904719;29;20114;-58
2022/04/16 06:58:51;;;;;;;13.25;8.32;;;8.70;99.90;;;;;;4910547;29;20485;-49
2022/04/16 07:01:17;;;;;;;13.75;8.43;;;8.80;99.90;;;;;;4909993;29;20044;-58
2022/04/16 07:03:42;;;;;;;13.02;8.65;;;8.90;99.90;;;;;;4894574;29;20059;-53
2022/04/16 07:06:08;;;;;;;14.02;8.65;;;8.90;99.90;;;;;;4904394;29;20028;-52
2022/04/16 07:08:34;;;;;;;11.50;8.05;;;9.00;99.90;;;;;;4911059;29;20036;-57
2022/04/16 07:10:59;;;;;;;12.63;8.82;;;9.10;99.90;;;;;;4912650;29;20171;-58
2022/04/16 07:13:25;;;;;;;11.70;8.20;;;9.20;99.90;;;;;;4910000;29;20048;-57
2022/04/16 07:15:50;;;;;;;13.88;8.35;;;9.40;99.90;;;;;;4908207;29;20043;-58
2022/04/16 07:18:16;;;;;;;10.90;7.05;;;9.50;99.90;;;;;;4910687;29;20055;-56
2022/04/16 07:20:44;;;;;;;12.45;7.53;;;9.60;99.90;;;;;;4892853;29;20438;-56
2022/04/16 07:23:10;;;;;;;11.63;6.90;;;9.80;99.90;;;;;;4908726;29;20032;-58
2022/04/16 07:25:36;;;;;;;12.10;7.95;;;9.90;99.90;;;;;;4870866;29;20557;-58
2022/04/16 07:28:01;;;;;;;11.85;7.63;;;10.00;99.90;;;;;;4872877;29;20036;-58
2022/04/16 07:30:27;;;;;;;14.20;8.43;;;10.10;99.90;;;;;;4871761;29;20140;-57
2022/04/16 07:32:53;;;;;;;15.48;9.27;;;10.20;99.90;;;;;;4876227;29;20184;-56
2022/04/16 07:35:19;;;;;;;14.00;8.60;;;10.20;99.90;;;;;;4874461;29;20040;-58
2022/04/16 07:37:48;;;;;;;13.55;8.75;;;10.30;99.90;;;;;;4877931;29;20052;-57
2022/04/16 07:40:13;;;;;;;13.32;8.90;;;10.30;99.90;;;;;;4871331;29;20611;-57
2022/04/16 07:42:39;;;;;;;13.40;8.20;;;10.40;99.90;;;;;;4873215;29;20132;-58
2022/04/16 07:45:06;;;;;;;14.93;8.82;;;10.40;99.90;;;;;;4873170;29;20045;-58
2022/04/16 07:47:31;;;;;;;14.57;8.43;;;10.40;99.90;;;;;;4871125;29;20084;-58
2022/04/16 07:49:57;;;;;;;13.07;8.00;;;10.40;99.90;;;;;;4872393;29;20093;-55
2022/04/16 07:52:25;;;;;;;11.40;6.97;;;10.40;99.90;;;;;;4874986;29;21896;-56
2022/04/16 07:54:51;;;;;;;12.07;8.15;;;10.40;99.90;;;;;;4874184;29;20049;-58
2022/04/16 07:57:17;;;;;;;13.32;8.20;;;10.50;99.90;;;;;;4867708;29;20132;-57
2022/04/16 07:59:43;;;;;;;12.68;7.93;;;10.60;99.90;;;;;;4874131;29;20181;-53
2022/04/16 08:02:08;;;;;;;11.77;7.20;;;10.70;99.90;;;;;;4871789;29;20089;-57
2022/04/16 08:04:34;;;;;;;12.20;7.65;;;10.90;99.90;;;;;;4873015;29;20038;-57
2022/04/16 08:06:59;;;;;;;11.93;6.85;;;11.00;99.90;;;;;;4868121;29;20045;-58
2022/04/16 08:09:25;;;;;;;20.02;7.10;;;11.10;99.90;;;;;;4870077;29;20496;-58
2022/04/16 08:11:51;;;;;;;11.85;7.70;;;11.20;99.90;;;;;;4874048;29;20037;-58
2022/04/16 08:14:16;;;;;;;11.77;7.72;;;11.30;99.90;;;;;;4876248;29;20674;-58
2022/04/16 08:16:42;;;;;;;12.68;7.90;;;11.40;99.90;;;;;;4874877;29;20132;-58
2022/04/16 08:19:07;;;;;;;12.20;7.93;;;11.40;99.90;;;;;;4876837;29;20067;-58
2022/04/16 08:21:34;;;;;;;10.05;6.90;;;11.50;99.90;;;;;;4868548;29;20036;-54
2022/04/16 08:24:04;;;;;;;10.48;6.60;;;11.50;99.90;;;;;;4885793;29;20195;-57
2022/04/16 08:26:33;;;;;;;12.07;7.22;;;11.40;99.90;;;;;;4912866;29;20052;-58
2022/04/16 08:28:59;;;;;;;15.30;7.28;;;11.40;99.90;;;;;;4911581;29;20048;-57
2022/04/16 08:31:25;;;;;;;10.10;6.53;;;11.40;99.90;;;;;;4912248;29;20043;-58
2022/04/16 08:33:50;;;;;;;12.20;7.50;;;11.40;99.90;;;;;;4897734;29;20469;-57
2022/04/16 08:36:16;;;;;;;10.20;6.88;;;11.50;99.90;;;;;;4897000;29;20091;-58
2022/04/16 08:38:41;;;;;;;11.80;6.63;;;11.50;99.90;;;;;;4913774;29;20052;-58
2022/04/16 08:41:09;;;;;;;10.57;6.75;;;11.60;99.90;;;;;;4913580;29;20511;-57
2022/04/16 08:43:35;;;;;;;10.57;6.63;;;11.60;99.90;;;;;;4909586;29;20080;-58
2022/04/16 08:46:04;;;;;;;10.05;6.10;;;11.60;99.90;;;;;;4911471;29;20095;-55
2022/04/16 08:48:34;;;;;;;8.43;5.97;;;11.70;99.90;;;;;;4906427;29;20517;-58
2022/04/16 08:51:00;;;;;;;9.43;6.68;;;11.80;99.90;;;;;;4911949;29;20469;-57
2022/04/16 08:53:25;;;;;;;9.60;5.55;;;11.90;99.90;;;;;;4911197;29;20138;-56
2022/04/16 08:55:51;;;;;;;9.13;5.65;;;12.10;99.90;;;;;;4913548;29;20135;-58
2022/04/16 08:58:17;;;;;;;7.82;5.07;;;12.20;99.90;;;;;;4894152;29;20130;-58
2022/04/16 09:00:43;;;;;;;8.15;5.18;;;12.30;99.90;;;;;;4909087;29;20083;-57
2022/04/16 09:03:09;;;;;;;7.78;4.68;;;12.40;99.90;;;;;;4910579;29;20382;-55
2022/04/16 09:05:36;;;;;;;8.98;5.22;;;12.50;99.90;;;;;;4907249;29;20506;-57
2022/04/16 09:08:03;;;;;;;7.15;4.63;;;12.60;99.90;;;;;;4908534;29;20037;-55
2022/04/16 09:10:31;;;;;;;7.97;4.22;;;12.70;99.90;;;;;;4906411;29;20074;-49
2022/04/16 09:13:02;;;;;;;9.05;5.18;;;12.70;99.90;;;;;;4888330;29;20112;-55
2022/04/16 09:15:29;;;;;;;8.52;5.43;;;12.80;99.40;;;;;;4911222;29;20711;-56
2022/04/16 09:18:01;;;;;;;10.13;5.28;;;12.80;98.70;;;;;;4908985;29;20079;-56
2022/04/16 09:20:34;;;;;;;9.63;5.20;;;12.80;97.20;;;;;;4907163;29;20047;-56
2022/04/16 09:23:01;;;;;;;7.70;4.68;;;12.90;96.40;;;;;;4892790;29;20052;-56
2022/04/16 09:25:29;;;;;;;8.35;4.78;;;12.90;96.10;;;;;;4902834;29;20067;-56
2022/04/16 09:27:55;;;;;;;6.15;3.75;;;12.90;95.00;;;;;;4908599;29;20090;-55
2022/04/16 09:30:24;;;;;;;6.85;3.50;;;12.90;93.10;;;;;;4910878;29;20068;-55
2022/04/16 09:32:49;;;;;;;6.40;3.75;;;13.00;90.90;;;;;;4903529;29;20044;-55
2022/04/16 09:35:31;;;;;;;6.47;4.00;;;13.10;90.90;;;;;;4888445;29;20510;-52
2022/04/16 09:38:01;;;;;;;5.38;3.50;;;13.10;90.40;;;;;;4911850;29;20123;-52
2022/04/16 09:40:47;;;;;;;7.63;3.80;;;13.20;90.20;;;;;;4907374;29;20048;-55
2022/04/16 09:43:13;;;;;;;9.30;4.40;;;13.30;86.70;;;;;;4908799;29;20040;-52
2022/04/16 09:45:40;;;;;;;5.82;3.47;;;13.30;88.60;;;;;;4908371;29;20077;-52
2022/04/16 09:48:14;;;;;;;5.47;3.20;;;13.30;89.60;;;;;;4907753;29;20058;-56
2022/04/16 09:50:41;;;;;;;7.18;2.63;;;13.40;86.00;;;;;;4905383;29;20493;-55
2022/04/16 09:53:08;;;;;;;4.93;2.67;;;13.50;83.20;;;;;;4907054;29;20044;-55
2022/04/16 09:55:35;;;;;;;5.50;2.80;;;13.50;80.80;;;;;;4907431;29;20497;-56
2022/04/16 09:58:03;;;;;;;4.00;2.30;;;13.70;82.00;;;;;;4906406;29;20040;-50
2022/04/16 10:00:31;;;;;;;8.07;3.35;;;13.70;79.80;;;;;;4911568;29;20067;-52
2022/04/16 10:02:59;;;;;;;5.10;2.67;;;13.80;77.90;;;;;;4905994;29;20623;-56
2022/04/16 10:05:25;;;;;;;5.85;2.97;;;13.90;79.10;;;;;;4902857;29;20036;-53
2022/04/16 10:07:55;;;;;;;5.30;3.28;;;14.00;79.80;;;;;;4906494;29;20087;-56
2022/04/16 10:10:55;;;;;;;4.18;2.40;;;14.00;77.70;;;;;;4904329;29;20513;-56
2022/04/16 10:13:15;;;;;;;5.43;2.60;;;14.10;76.40;;;;;;4904628;29;20092;-56
2022/04/16 10:15:41;;;;;;;4.57;2.42;;;14.20;75.80;;;;;;4912425;29;20126;-54
2022/04/16 10:18:06;;;;;;;4.32;2.50;;;14.30;75.00;;;;;;4908583;29;20044;-55
2022/04/16 10:20:32;;;;;;;3.45;2.15;;;14.40;73.20;;;;;;4910222;29;20051;-52
2022/04/16 10:23:04;;;;;;;6.38;1.73;;;14.50;71.10;;;;;;4908843;29;20044;-52
2022/04/16 10:25:42;;;;;;;6.15;1.98;;;14.50;70.10;;;;;;4905173;29;20060;-53
2022/04/16 10:28:16;;;;;;;3.22;1.65;;;14.60;69.20;;;;;;4909060;29;20087;-55
2022/04/16 10:30:50;;;;;;;2.42;1.33;;;14.70;67.30;;;;;;4901659;29;20037;-55
2022/04/16 10:33:21;;;;;;;7.07;2.05;;;14.70;64.50;;;;;;4905606;29;20087;-52
2022/04/16 10:35:51;;;;;;;3.50;1.80;;;14.80;66.40;;;;;;4907670;29;20075;-57
2022/04/16 10:38:23;;;;;;;3.78;1.42;;;14.90;66.40;;;;;;4891583;29;20063;-56
2022/04/16 10:41:09;;;;;;;27.13;3.13;;;15.10;63.80;;;;;;4908306;29;20126;-50
2022/04/16 10:43:35;;;;;;;18.17;2.38;;;15.10;61.50;;;;;;4914430;29;20516;-51
2022/04/16 10:46:09;;;;;;;16.50;1.98;;;15.30;62.80;;;;;;4910492;29;20044;-56
2022/04/16 10:48:39;;;;;;;3.40;1.63;;;15.30;63.30;;;;;;4905380;29;20494;-56
2022/04/16 10:51:06;;;;;;;3.22;1.27;;;15.40;61.80;;;;;;4906126;29;20083;-56
2022/04/16 10:53:36;;;;;;;3.10;1.23;;;15.50;63.00;;;;;;4906467;29;20051;-52
2022/04/16 10:56:17;;;;;;;3.58;1.30;;;15.50;61.80;;;;;;4891553;29;20051;-55
2022/04/16 10:59:00;;;;;;;2.63;1.40;;;15.60;60.60;;;;;;4909888;29;20047;-56
2022/04/16 11:01:27;;;;;;;3.00;1.20;;;15.70;60.30;;;;;;4906662;29;20070;-57
2022/04/16 11:03:54;;;;;;;3.40;1.20;;;15.70;59.00;;;;;;4904446;29;20040;-57
2022/04/16 11:06:20;;;;;;;2.78;1.30;;;15.70;57.70;;;;;;4908352;29;20050;-54
2022/04/16 11:08:46;;;;;;;1.70;1.00;;;15.70;57.60;;;;;;4908950;29;20115;-56
2022/04/16 11:11:15;;;;;;;3.10;0.88;;;15.70;58.30;;;;;;4907345;29;20040;-55
2022/04/16 11:13:42;;;;;;;2.78;1.38;;;15.80;58.30;;;;;;4907630;29;20051;-54
2022/04/16 11:16:08;;;;;;;1.90;0.88;;;15.90;57.10;;;;;;4906764;29;20056;-57
2022/04/16 11:18:47;;;;;;;2.15;0.85;;;16.00;56.00;;;;;;4906675;29;20548;-60
2022/04/16 11:21:19;;;;;;;2.20;0.88;;;16.10;55.40;;;;;;4906723;29;20123;-57
2022/04/16 11:24:08;;;;;;;2.75;0.93;;;16.10;53.90;;;;;;4905297;29;20526;-54
2022/04/16 11:34:56;;;;;;;3.47;0.95;;;16.30;53.40;;;;;;4910001;29;20416;-57
2022/04/16 11:37:22;;;;;;;1.98;1.25;;;16.30;52.50;;;;;;4901745;29;20050;-57
2022/04/16 11:39:59;;;;;;;2.30;1.15;;;16.40;52.80;;;;;;4909749;29;20542;-57
2022/04/16 11:42:26;;;;;;;3.35;1.30;;;16.40;52.40;;;;;;4908714;29;20076;-54
2022/04/16 11:44:52;;;;;;;4.65;1.52;;;16.50;51.20;;;;;;4912844;29;20064;-57
2022/04/16 11:47:22;;;;;;;2.00;0.90;;;16.50;51.60;;;;;;4910611;29;20036;-54
2022/04/16 11:50:05;;;;;;;2.22;1.00;;;16.60;49.80;;;;;;4911702;29;20044;-57
2022/04/16 11:52:33;;;;;;;1.25;0.65;;;16.70;48.60;;;;;;4907459;29;20039;-56
2022/04/16 11:55:19;;;;;;;2.25;0.65;;;16.80;47.90;;;;;;4907877;29;20594;-57
2022/04/16 11:57:52;;;;;;;1.08;0.50;;;16.80;44.50;;;;;;4909392;29;20048;-53
2022/04/16 12:00:20;;;;;;;1.73;0.50;;;16.80;45.10;;;;;;4902667;29;20048;-57
2022/04/16 12:02:48;;;;;;;4.85;0.50;;;16.90;44.30;;;;;;4906065;29;20044;-55
2022/04/16 12:05:16;;;;;;;0.70;0.40;;;16.80;41.00;;;;;;4909087;29;20099;-56
2022/04/16 12:07:48;;;;;;;1.77;0.40;;;16.90;42.10;;;;;;4910991;29;20103;-57
2022/04/16 12:10:16;;;;;;;0.70;0.40;;;17.00;42.20;;;;;;4907603;29;20112;-57
2022/04/16 12:12:53;;;;;;;1.77;0.57;;;17.00;41.10;;;;;;4908945;29;20059;-56
2022/04/16 12:15:29;;;;;;;1.05;0.60;;;17.00;39.60;;;;;;4909748;29;20533;-58
2022/04/16 12:17:57;;;;;;;1.42;0.50;;;17.00;39.20;;;;;;4912735;29;20048;-55
2022/04/16 12:20:24;;;;;;;0.60;0.32;;;17.10;40.50;;;;;;4913663;29;20071;-57
2022/04/16 12:23:03;;;;;;;1.05;0.50;;;17.20;40.40;;;;;;4898677;29;20040;-55
2022/04/16 12:25:30;;;;;;;1.67;0.40;;;17.30;39.90;;;;;;4908193;29;20056;-55
2022/04/16 12:27:58;;;;;;;1.27;0.32;;;17.40;40.00;;;;;;4911647;29;20074;-57
2022/04/16 12:30:25;;;;;;;1.98;0.40;;;17.50;39.40;;;;;;4912722;29;20497;-56
2022/04/16 12:33:03;;;;;;;1.35;0.40;;;17.60;38.90;;;;;;4912956;29;20092;-54
2022/04/16 12:35:30;;;;;;;2.78;0.52;;;17.70;39.30;;;;;;4906832;29;20087;-56
2022/04/16 12:37:57;;;;;;;0.65;0.30;;;17.80;38.90;;;;;;4891005;29;20043;-56
2022/04/16 12:40:24;;;;;;;2.13;0.50;;;17.80;38.60;;;;;;4907616;29;20120;-57
2022/04/16 12:42:51;;;;;;;0.85;0.30;;;17.90;38.70;;;;;;4909419;29;20504;-52
2022/04/16 12:45:18;;;;;;;3.60;0.63;;;17.80;37.10;;;;;;4910421;29;20119;-56
2022/04/16 12:47:44;;;;;;;1.25;0.60;;;17.80;36.90;;;;;;4910763;29;20048;-57
2022/04/16 12:50:10;;;;;;;2.47;0.40;;;17.70;36.40;;;;;;4909153;29;20063;-57
2022/04/16 12:52:36;;;;;;;4.93;0.50;;;17.80;37.50;;;;;;4900878;29;20427;-56
2022/04/16 12:55:03;;;;;;;4.18;0.55;;;17.80;38.30;;;;;;4909467;29;20036;-51
2022/04/16 12:57:28;;;;;;;1.15;0.52;;;18.00;38.00;;;;;;4911720;29;20467;-56
2022/04/16 12:59:55;;;;;;;1.80;0.40;;;18.10;36.70;;;;;;4899140;29;20405;-57
2022/04/16 13:02:20;;;;;;;2.58;0.40;;;18.30;37.40;;;;;;4905614;29;20093;-46
2022/04/16 13:04:46;;;;;;;0.70;0.30;;;18.50;36.30;;;;;;4907875;29;20603;-55
2022/04/16 13:07:12;;;;;;;1.13;0.40;;;18.60;35.70;;;;;;4911727;29;20064;-55